Terminal Aerodrome Forecast
Issued by NWS Twin Cities, MN

Home | Current Version | Previous Version | Graphics & Text | Print | Product List | Glossary On
Versions: 1 2 3 4 5 6 7 8 9 10 11 12 13 14
000
FTUS43 KMPX 241720
TAFSTC
TAF
KSTC 241720Z 2418/2518 13009G16KT 5SM -SHRA BKN035 OVC050
     FM242000 12014G21KT 6SM -SHRA OVC020
     FM250000 10013KT 6SM BR OVC012
     FM250700 08008KT 4SM BR OVC008
     FM251500 09008KT P6SM OVC015=

USA.gov is the U.S. government's official web portal to all federal, state and local government web resources and services.